createdAt,value
2023-01-12T00:01:30.205Z,98865.00
2023-01-12T00:04:17.991Z,98851.00
2023-01-12T00:07:14.357Z,98854.00
2023-01-12T00:10:01.834Z,98863.00
2023-01-12T00:12:49.409Z,98866.00
2023-01-12T00:15:55.684Z,98856.00
2023-01-12T00:18:43.368Z,98856.00
2023-01-12T00:21:36.999Z,98859.00
2023-01-12T00:24:35.602Z,98859.00
2023-01-12T00:27:23.110Z,98867.00
2023-01-12T00:30:12.069Z,98868.00
2023-01-12T00:32:59.930Z,98872.00
2023-01-12T00:35:47.419Z,98869.00
2023-01-12T00:38:36.713Z,98876.00
2023-01-12T00:41:42.705Z,98870.00
2023-01-12T00:44:49.408Z,98875.00
2023-01-12T00:47:37.095Z,98872.00
2023-01-12T00:50:24.611Z,98879.00
2023-01-12T00:53:13.351Z,98881.00
2023-01-12T00:56:05.631Z,98886.00
2023-01-12T00:58:53.166Z,98888.00
2023-01-12T01:01:41.027Z,98886.00
2023-01-12T01:04:28.686Z,98897.00
2023-01-12T01:07:17.298Z,98896.00
2023-01-12T01:10:05.776Z,98899.00
2023-01-12T01:12:53.346Z,98913.00
2023-01-12T01:15:40.990Z,98917.00
2023-01-12T01:18:29.758Z,98910.00
2023-01-12T01:21:19.106Z,98920.00
2023-01-12T01:24:13.530Z,98918.00
2023-01-12T01:27:01.199Z,98923.00
2023-01-12T01:29:48.828Z,98930.00
2023-01-12T01:32:36.473Z,98928.00
2023-01-12T01:35:24.458Z,98933.00
2023-01-12T01:38:12.090Z,98942.00
2023-01-12T01:41:00.314Z,98939.00
2023-01-12T01:43:59.772Z,98938.00
2023-01-12T01:46:58.585Z,98940.00
2023-01-12T01:49:55.407Z,98936.00
2023-01-12T01:52:53.489Z,98935.00
2023-01-12T01:56:26.511Z,98957.00
2023-01-12T01:59:23.104Z,98950.00
2023-01-12T02:02:11.772Z,98957.00
2023-01-12T02:05:00.806Z,98956.00
2023-01-12T02:07:50.758Z,98968.00
2023-01-12T02:10:39.321Z,98954.00
2023-01-12T02:13:50.210Z,98964.00
2023-01-12T02:16:55.519Z,98968.00
2023-01-12T02:20:40.082Z,98971.00
2023-01-12T02:24:14.931Z,98970.00
2023-01-12T02:27:32.615Z,98969.00
2023-01-12T02:31:32.943Z,98970.00
2023-01-12T02:34:35.334Z,98965.00
2023-01-12T02:37:48.514Z,98976.00
2023-01-12T02:41:12.672Z,98979.00
2023-01-12T02:44:01.713Z,98973.00
2023-01-12T02:46:52.391Z,98975.00
2023-01-12T02:49:48.088Z,98981.00
2023-01-12T02:52:35.875Z,98983.00
2023-01-12T02:55:27.428Z,98980.00
2023-01-12T02:58:21.211Z,98985.00
2023-01-12T03:01:11.879Z,98986.00
2023-01-12T03:04:06.038Z,98993.00
2023-01-12T03:06:59.091Z,98990.00
2023-01-12T03:09:54.660Z,98991.00
2023-01-12T03:12:45.091Z,98984.00
2023-01-12T03:15:37.539Z,98992.00
2023-01-12T03:18:34.485Z,98987.00
2023-01-12T03:21:36.183Z,98983.00
2023-01-12T03:24:42.154Z,98985.00
2023-01-12T03:27:39.384Z,98984.00
2023-01-12T03:30:47.093Z,98989.00
2023-01-12T03:33:35.747Z,98980.00
2023-01-12T03:36:47.713Z,98996.00
2023-01-12T03:39:51.231Z,98989.00
2023-01-12T03:42:48.653Z,98994.00
2023-01-12T03:46:04.854Z,98990.00
2023-01-12T03:49:23.605Z,98991.00
2023-01-12T03:52:13.847Z,98996.00
2023-01-12T03:55:05.554Z,99003.00
2023-01-12T03:57:54.505Z,99006.00
2023-01-12T04:00:42.227Z,99011.00
2023-01-12T04:03:30.372Z,99012.00
2023-01-12T04:06:17.935Z,99000.00
2023-01-12T04:09:05.506Z,98994.00
2023-01-12T04:12:11.387Z,98979.00
2023-01-12T04:14:59.480Z,98987.00
2023-01-12T04:17:46.950Z,98986.00
2023-01-12T04:20:34.495Z,98991.00
2023-01-12T04:23:21.974Z,98981.00
2023-01-12T04:26:09.527Z,98987.00
2023-01-12T04:28:57.027Z,98999.00
2023-01-12T04:31:44.593Z,98997.00
2023-01-12T04:34:32.060Z,98988.00
2023-01-12T04:37:19.545Z,98985.00
2023-01-12T04:40:09.677Z,98988.00
2023-01-12T04:43:08.411Z,98996.00
2023-01-12T04:45:56.484Z,98997.00
2023-01-12T04:48:45.735Z,98994.00
2023-01-12T04:51:33.239Z,98991.00
2023-01-12T04:54:20.730Z,98988.00
2023-01-12T04:57:08.165Z,98997.00
2023-01-12T04:59:55.732Z,98997.00
2023-01-12T05:02:43.210Z,99006.00
2023-01-12T05:05:33.057Z,99004.00
2023-01-12T05:08:39.336Z,99001.00
2023-01-12T05:11:29.618Z,98994.00
2023-01-12T05:14:17.085Z,98995.00
2023-01-12T05:17:05.324Z,98989.00
2023-01-12T05:19:52.769Z,98988.00
2023-01-12T05:22:40.324Z,98988.00
2023-01-12T05:25:29.419Z,99006.00
2023-01-12T05:28:16.908Z,99009.00
2023-01-12T05:31:11.673Z,99003.00
2023-01-12T05:33:59.187Z,98999.00
2023-01-12T05:36:49.888Z,99009.00
2023-01-12T05:39:37.376Z,99012.00
2023-01-12T05:42:43.758Z,99023.00
2023-01-12T05:45:31.235Z,99022.00
2023-01-12T05:48:18.706Z,99019.00
2023-01-12T05:51:10.057Z,99018.00
2023-01-12T05:53:57.806Z,99009.00
2023-01-12T05:56:45.359Z,99021.00
2023-01-12T05:59:33.150Z,99027.00
2023-01-12T06:02:21.722Z,99019.00
2023-01-12T06:05:10.224Z,99019.00
2023-01-12T06:08:00.766Z,99023.00
2023-01-12T06:10:48.488Z,99022.00
2023-01-12T06:13:54.671Z,99021.00
2023-01-12T06:16:43.364Z,99029.00
2023-01-12T06:19:30.970Z,99027.00
2023-01-12T06:22:19.565Z,99023.00
2023-01-12T06:25:08.096Z,99019.00
2023-01-12T06:27:56.382Z,99017.00
2023-01-12T06:30:43.944Z,99007.00
2023-01-12T06:33:32.792Z,99015.00
2023-01-12T06:36:20.355Z,99018.00
2023-01-12T06:39:07.825Z,99014.00
2023-01-12T06:42:14.227Z,99019.00
2023-01-12T06:45:05.787Z,99015.00
2023-01-12T06:47:53.316Z,99020.00
2023-01-12T06:50:40.874Z,99014.00
2023-01-12T06:53:28.424Z,99019.00
2023-01-12T06:56:16.007Z,99021.00
2023-01-12T06:59:03.571Z,99029.00
2023-01-12T07:01:51.392Z,99028.00
2023-01-12T07:04:40.645Z,99033.00
2023-01-12T07:07:28.167Z,99028.00
2023-01-12T07:10:16.374Z,99032.00
2023-01-12T07:13:04.248Z,99020.00
2023-01-12T07:15:52.701Z,99027.00
2023-01-12T07:18:40.402Z,99028.00
2023-01-12T07:21:29.215Z,99030.00
2023-01-12T07:24:17.341Z,99034.00
2023-01-12T07:27:05.245Z,99020.00
2023-01-12T07:29:52.742Z,99018.00
2023-01-12T07:32:40.295Z,99015.00
2023-01-12T07:35:27.771Z,99015.00
2023-01-12T07:38:15.265Z,99023.00
2023-01-12T07:41:04.083Z,99019.00
2023-01-12T07:43:51.900Z,99023.00
2023-01-12T07:46:39.534Z,99023.00
2023-01-12T07:49:27.905Z,99018.00
2023-01-12T07:52:15.865Z,99023.00
2023-01-12T07:55:03.525Z,99019.00
2023-01-12T07:58:00.293Z,99008.00
2023-01-12T08:00:47.840Z,99012.00
2023-01-12T08:03:35.659Z,99015.00
2023-01-12T08:06:23.197Z,99012.00
2023-01-12T08:09:10.673Z,99005.00
2023-01-12T08:11:58.123Z,99007.00
2023-01-12T08:14:45.726Z,99008.00
2023-01-12T08:17:43.175Z,99017.00
2023-01-12T08:20:36.418Z,99021.00
2023-01-12T08:23:36.315Z,99025.00
2023-01-12T08:26:32.874Z,99034.00
2023-01-12T08:29:53.694Z,99032.00
2023-01-12T08:32:41.781Z,99017.00
2023-01-12T08:35:35.040Z,99010.00
2023-01-12T08:38:22.578Z,99005.00
2023-01-12T08:41:28.931Z,99013.00
2023-01-12T08:44:16.455Z,99017.00
2023-01-12T08:47:14.366Z,99016.00
2023-01-12T08:50:03.045Z,99020.00
2023-01-12T08:52:50.543Z,99019.00
2023-01-12T08:55:38.064Z,99005.00
2023-01-12T08:58:25.791Z,99007.00
2023-01-12T09:01:17.408Z,99015.00
2023-01-12T09:04:06.417Z,99021.00
2023-01-12T09:06:53.963Z,99021.00
2023-01-12T09:09:41.482Z,99017.00
2023-01-12T09:12:29.198Z,99025.00
2023-01-12T09:15:16.923Z,99011.00
2023-01-12T09:18:04.501Z,99017.00
2023-01-12T09:20:52.124Z,99007.00
2023-01-12T09:23:40.633Z,99016.00
2023-01-12T09:26:32.253Z,99026.00
2023-01-12T09:29:19.984Z,99017.00
2023-01-12T09:32:07.507Z,99023.00
2023-01-12T09:34:54.989Z,99018.00
2023-01-12T09:37:43.783Z,99018.00
2023-01-12T09:40:31.642Z,99014.00
2023-01-12T09:43:38.344Z,99012.00
2023-01-12T09:47:01.255Z,99013.00
2023-01-12T09:50:18.153Z,99001.00
2023-01-12T09:53:19.873Z,98997.00
2023-01-12T09:56:37.385Z,98991.00
2023-01-12T09:59:31.279Z,98990.00
2023-01-12T10:02:18.815Z,98984.00
2023-01-12T10:05:20.464Z,98991.00
2023-01-12T10:08:45.791Z,98985.00
2023-01-12T10:11:50.987Z,98986.00
2023-01-12T10:15:05.845Z,98981.00
2023-01-12T10:18:31.245Z,98972.00
2023-01-12T10:21:18.837Z,98966.00
2023-01-12T10:24:14.266Z,98963.00
2023-01-12T10:27:04.169Z,98964.00
2023-01-12T10:29:52.873Z,98953.00
2023-01-12T10:32:42.269Z,98945.00
2023-01-12T10:35:29.987Z,98947.00
2023-01-12T10:38:25.905Z,98944.00
2023-01-12T10:41:17.321Z,98932.00
2023-01-12T10:44:16.306Z,98933.00
2023-01-12T10:47:16.036Z,98931.00
2023-01-12T10:50:20.239Z,98926.00
2023-01-12T10:53:17.558Z,98924.00
2023-01-12T10:56:46.815Z,98919.00
2023-01-12T10:59:39.296Z,98921.00
2023-01-12T11:02:32.389Z,98914.00
2023-01-12T11:05:38.882Z,98908.00
2023-01-12T11:08:29.150Z,98893.00
2023-01-12T11:11:31.602Z,98899.00
2023-01-12T11:14:31.622Z,98890.00
2023-01-12T11:17:51.225Z,98885.00
2023-01-12T11:20:55.828Z,98889.00
2023-01-12T11:24:47.564Z,98881.00
2023-01-12T11:27:48.089Z,98877.00
2023-01-12T11:30:44.369Z,98868.00
2023-01-12T11:33:54.931Z,98862.00
2023-01-12T11:36:50.681Z,98842.00
2023-01-12T11:39:41.296Z,98841.00
2023-01-12T11:42:50.666Z,98827.00
2023-01-12T11:45:53.690Z,98821.00
2023-01-12T11:49:24.584Z,98814.00
2023-01-12T11:52:16.751Z,98802.00
2023-01-12T11:55:04.787Z,98816.00
2023-01-12T11:58:20.306Z,98812.00
2023-01-12T12:01:23.247Z,98804.00
2023-01-12T12:04:43.417Z,98793.00
2023-01-12T12:08:28.582Z,98786.00
2023-01-12T12:11:41.865Z,98784.00
2023-01-12T12:14:47.455Z,98783.00
2023-01-12T12:17:55.881Z,98787.00
2023-01-12T12:21:09.700Z,98792.00
2023-01-12T12:24:32.322Z,98797.00
2023-01-12T12:27:41.756Z,98781.00
2023-01-12T12:31:02.319Z,98786.00
2023-01-12T12:34:11.973Z,98768.00
2023-01-12T12:37:35.775Z,98786.00
2023-01-12T12:41:25.418Z,98779.00
2023-01-12T12:44:55.447Z,98753.00
2023-01-12T12:48:00.908Z,98747.00
2023-01-12T12:51:08.626Z,98748.00
2023-01-12T12:53:57.677Z,98749.00
2023-01-12T12:56:47.436Z,98735.00
2023-01-12T12:59:34.904Z,98737.00
2023-01-12T13:02:54.495Z,98737.00
2023-01-12T13:05:48.012Z,98738.00
2023-01-12T13:08:37.289Z,98736.00
2023-01-12T13:11:54.084Z,98742.00
2023-01-12T13:14:43.710Z,98730.00
2023-01-12T13:17:31.870Z,98726.00
2023-01-12T13:20:25.792Z,98731.00
2023-01-12T13:23:50.806Z,98731.00
2023-01-12T13:26:42.662Z,98726.00
2023-01-12T13:29:30.267Z,98730.00
2023-01-12T13:32:35.692Z,98727.00
2023-01-12T13:35:35.523Z,98721.00
2023-01-12T13:38:45.041Z,98714.00
2023-01-12T13:41:56.256Z,98713.00
2023-01-12T13:44:44.875Z,98715.00
2023-01-12T13:47:33.835Z,98707.00
2023-01-12T13:50:27.535Z,98712.00
2023-01-12T13:53:28.785Z,98711.00
2023-01-12T13:56:21.018Z,98700.00
2023-01-12T13:59:19.419Z,98705.00
2023-01-12T14:02:18.770Z,98708.00
2023-01-12T14:05:32.726Z,98699.00
2023-01-12T14:08:30.711Z,98711.00
2023-01-12T14:11:49.420Z,98709.00
2023-01-12T14:15:29.659Z,98712.00
2023-01-12T14:18:24.722Z,98715.00
2023-01-12T14:21:37.742Z,98709.00
2023-01-12T14:24:25.841Z,98713.00
2023-01-12T14:27:26.151Z,98708.00
2023-01-12T14:30:15.434Z,98706.00
2023-01-12T14:33:02.971Z,98711.00
2023-01-12T14:35:56.213Z,98706.00
2023-01-12T14:38:45.836Z,98707.00
2023-01-12T14:41:52.552Z,98704.00
2023-01-12T14:45:15.316Z,98690.00
2023-01-12T14:48:24.849Z,98692.00
2023-01-12T14:51:32.647Z,98680.00
2023-01-12T14:54:29.675Z,98675.00
2023-01-12T14:57:36.471Z,98675.00
2023-01-12T15:00:38.301Z,98679.00
2023-01-12T15:03:35.432Z,98672.00
2023-01-12T15:06:27.461Z,98685.00
2023-01-12T15:09:35.426Z,98677.00
2023-01-12T15:12:30.403Z,98681.00
2023-01-12T15:15:50.166Z,98684.00
2023-01-12T15:18:57.163Z,98679.00
2023-01-12T15:22:06.292Z,98687.00
2023-01-12T15:25:15.816Z,98674.00
2023-01-12T15:28:06.205Z,98665.00
2023-01-12T15:30:55.802Z,98667.00
2023-01-12T15:33:43.860Z,98666.00
2023-01-12T15:36:31.742Z,98674.00
2023-01-12T15:39:19.276Z,98668.00
2023-01-12T15:42:18.158Z,98668.00
2023-01-12T15:45:40.943Z,98668.00
2023-01-12T15:48:28.866Z,98668.00
2023-01-12T15:51:16.907Z,98667.00
2023-01-12T15:54:05.841Z,98666.00
2023-01-12T15:56:54.170Z,98661.00
2023-01-12T15:59:42.083Z,98661.00
2023-01-12T16:02:38.593Z,98661.00
2023-01-12T16:05:26.655Z,98668.00
2023-01-12T16:08:14.444Z,98669.00
2023-01-12T16:11:13.739Z,98666.00
2023-01-12T16:14:01.513Z,98670.00
2023-01-12T16:16:49.435Z,98675.00
2023-01-12T16:19:41.421Z,98675.00
2023-01-12T16:22:29.193Z,98679.00
2023-01-12T16:25:17.827Z,98679.00
2023-01-12T16:28:05.755Z,98678.00
2023-01-12T16:30:55.073Z,98681.00
2023-01-12T16:33:44.101Z,98674.00
2023-01-12T16:36:31.685Z,98669.00
2023-01-12T16:39:19.215Z,98666.00
2023-01-12T16:42:07.135Z,98670.00
2023-01-12T16:44:54.778Z,98683.00
2023-01-12T16:47:42.461Z,98680.00
2023-01-12T16:50:30.024Z,98681.00
2023-01-12T16:53:17.585Z,98680.00
2023-01-12T16:56:05.503Z,98676.00
2023-01-12T16:58:53.195Z,98681.00
2023-01-12T17:01:40.843Z,98679.00
2023-01-12T17:04:28.465Z,98681.00
2023-01-12T17:07:16.233Z,98681.00
2023-01-12T17:10:04.544Z,98681.00
2023-01-12T17:12:55.730Z,98683.00
2023-01-12T17:15:46.971Z,98671.00
2023-01-12T17:18:34.954Z,98679.00
2023-01-12T17:21:23.658Z,98676.00
2023-01-12T17:24:16.844Z,98682.00
2023-01-12T17:27:04.564Z,98678.00
2023-01-12T17:29:52.706Z,98677.00
2023-01-12T17:32:43.057Z,98682.00
2023-01-12T17:35:30.793Z,98677.00
2023-01-12T17:38:18.607Z,98670.00
2023-01-12T17:41:36.101Z,98677.00
2023-01-12T17:44:23.748Z,98678.00
2023-01-12T17:47:12.881Z,98675.00
2023-01-12T17:50:00.850Z,98673.00
2023-01-12T17:52:49.035Z,98670.00
2023-01-12T17:55:47.567Z,98673.00
2023-01-12T17:58:37.199Z,98671.00
2023-01-12T18:01:29.639Z,98667.00
2023-01-12T18:04:18.319Z,98667.00
2023-01-12T18:07:06.312Z,98669.00
2023-01-12T18:09:54.639Z,98669.00
2023-01-12T18:12:42.259Z,98669.00
2023-01-12T18:15:29.780Z,98667.00
2023-01-12T18:18:17.669Z,98656.00
2023-01-12T18:21:12.726Z,98660.00
2023-01-12T18:24:01.536Z,98659.00
2023-01-12T18:26:51.130Z,98662.00
2023-01-12T18:29:39.278Z,98661.00
2023-01-12T18:32:26.994Z,98657.00
2023-01-12T18:35:16.663Z,98655.00
2023-01-12T18:38:05.164Z,98647.00
2023-01-12T18:41:11.818Z,98645.00
2023-01-12T18:44:06.366Z,98642.00
2023-01-12T18:47:15.090Z,98635.00
2023-01-12T18:50:22.870Z,98632.00
2023-01-12T18:53:23.798Z,98630.00
2023-01-12T18:56:11.393Z,98629.00
2023-01-12T18:58:58.939Z,98627.00
2023-01-12T19:01:46.540Z,98619.00
2023-01-12T19:04:57.093Z,98628.00
2023-01-12T19:08:10.876Z,98619.00
2023-01-12T19:11:12.076Z,98623.00
2023-01-12T19:14:18.635Z,98617.00
2023-01-12T19:17:24.757Z,98616.00
2023-01-12T19:20:16.095Z,98615.00
2023-01-12T19:23:22.147Z,98612.00
2023-01-12T19:26:29.503Z,98629.00
2023-01-12T19:29:17.489Z,98623.00
2023-01-12T19:32:05.152Z,98611.00
2023-01-12T19:34:56.589Z,98619.00
2023-01-12T19:37:50.756Z,98607.00
2023-01-12T19:40:50.311Z,98611.00
2023-01-12T19:43:41.676Z,98623.00
2023-01-12T19:46:29.221Z,98620.00
2023-01-12T19:49:18.150Z,98625.00
2023-01-12T19:52:06.153Z,98617.00
2023-01-12T19:54:54.320Z,98613.00
2023-01-12T19:57:43.490Z,98605.00
2023-01-12T20:00:31.104Z,98600.00
2023-01-12T20:03:24.228Z,98594.00
2023-01-12T20:06:11.775Z,98594.00
2023-01-12T20:08:59.774Z,98592.00
2023-01-12T20:11:54.635Z,98594.00
2023-01-12T20:14:42.966Z,98592.00
2023-01-12T20:17:30.971Z,98590.00
2023-01-12T20:20:19.663Z,98592.00
2023-01-12T20:23:07.468Z,98575.00
2023-01-12T20:25:56.248Z,98589.00
2023-01-12T20:28:44.327Z,98583.00
2023-01-12T20:31:33.565Z,98579.00
2023-01-12T20:34:22.307Z,98581.00
2023-01-12T20:37:10.363Z,98581.00
2023-01-12T20:39:58.149Z,98587.00
2023-01-12T20:42:46.781Z,98584.00
2023-01-12T20:45:34.473Z,98573.00
2023-01-12T20:48:22.025Z,98573.00
2023-01-12T20:51:13.361Z,98567.00
2023-01-12T20:54:05.924Z,98578.00
2023-01-12T20:56:53.504Z,98561.00
2023-01-12T20:59:41.550Z,98564.00
2023-01-12T21:02:29.300Z,98570.00
2023-01-12T21:05:17.202Z,98567.00
2023-01-12T21:08:08.354Z,98572.00
2023-01-12T21:10:59.686Z,98569.00
2023-01-12T21:13:48.229Z,98576.00
2023-01-12T21:16:36.372Z,98573.00
2023-01-12T21:19:24.526Z,98567.00
2023-01-12T21:22:12.961Z,98571.00
2023-01-12T21:25:00.637Z,98572.00
2023-01-12T21:27:48.550Z,98578.00
2023-01-12T21:30:40.701Z,98565.00
2023-01-12T21:33:29.025Z,98569.00
2023-01-12T21:36:19.265Z,98574.00
2023-01-12T21:39:06.772Z,98579.00
2023-01-12T21:42:13.209Z,98572.00
2023-01-12T21:45:00.767Z,98578.00
2023-01-12T21:47:48.540Z,98570.00
2023-01-12T21:50:37.182Z,98571.00
2023-01-12T21:53:25.028Z,98576.00
2023-01-12T21:56:13.863Z,98566.00
2023-01-12T21:59:01.400Z,98568.00
2023-01-12T22:01:49.479Z,98563.00
2023-01-12T22:04:37.440Z,98555.00
2023-01-12T22:07:27.746Z,98572.00
2023-01-12T22:10:20.641Z,98572.00
2023-01-12T22:13:13.986Z,98564.00
2023-01-12T22:16:11.982Z,98570.00
2023-01-12T22:18:59.947Z,98571.00
2023-01-12T22:21:47.649Z,98572.00
2023-01-12T22:24:35.453Z,98564.00
2023-01-12T22:27:25.766Z,98565.00
2023-01-12T22:30:21.213Z,98557.00
2023-01-12T22:33:12.393Z,98547.00
2023-01-12T22:36:04.176Z,98544.00
2023-01-12T22:38:51.930Z,98554.00
2023-01-12T22:41:41.272Z,98547.00
2023-01-12T22:44:29.017Z,98551.00
2023-01-12T22:47:17.185Z,98548.00
2023-01-12T22:50:06.146Z,98543.00
2023-01-12T22:52:54.921Z,98539.00
2023-01-12T22:55:42.790Z,98551.00
2023-01-12T22:58:31.323Z,98549.00
2023-01-12T23:01:20.757Z,98555.00
2023-01-12T23:04:12.856Z,98553.00
2023-01-12T23:07:00.476Z,98552.00
2023-01-12T23:09:48.544Z,98556.00
2023-01-12T23:12:36.081Z,98560.00
2023-01-12T23:15:23.583Z,98558.00
2023-01-12T23:18:13.918Z,98547.00
2023-01-12T23:21:16.579Z,98549.00
2023-01-12T23:24:04.481Z,98538.00
2023-01-12T23:26:52.029Z,98522.00
2023-01-12T23:29:40.203Z,98526.00
2023-01-12T23:32:27.773Z,98525.00
2023-01-12T23:35:17.129Z,98523.00
2023-01-12T23:38:06.555Z,98518.00
2023-01-12T23:40:54.156Z,98514.00
2023-01-12T23:43:43.743Z,98524.00
2023-01-12T23:46:36.803Z,98515.00
2023-01-12T23:49:24.908Z,98516.00
2023-01-12T23:52:12.576Z,98518.00
2023-01-12T23:55:00.446Z,98515.00
2023-01-12T23:57:48.471Z,98516.00
